createdAt,value
2018-07-07T00:00:21.221Z,1.00
2018-07-07T00:02:50.229Z,1.40
2018-07-07T00:05:19.213Z,1.00
2018-07-07T00:07:48.233Z,1.00
2018-07-07T00:10:17.453Z,1.63
2018-07-07T00:12:46.424Z,1.03
2018-07-07T00:15:17.540Z,1.30
2018-07-07T00:17:46.928Z,1.00
2018-07-07T00:20:16.350Z,1.00
2018-07-07T00:22:45.792Z,0.90
2018-07-07T00:25:15.992Z,1.10
2018-07-07T00:27:45.857Z,0.90
2018-07-07T00:30:15.269Z,0.80
2018-07-07T00:32:44.301Z,2.03
2018-07-07T00:35:13.484Z,0.90
2018-07-07T00:37:42.471Z,1.10
2018-07-07T00:40:11.908Z,1.00
2018-07-07T00:42:41.080Z,1.07
2018-07-07T00:45:10.080Z,1.07
2018-07-07T00:47:39.091Z,0.90
2018-07-07T00:50:08.540Z,1.13
2018-07-07T00:52:37.544Z,1.20
2018-07-07T00:55:06.568Z,1.33
2018-07-07T00:57:35.590Z,1.20
2018-07-07T01:00:04.620Z,1.20
2018-07-07T01:02:33.612Z,1.73
2018-07-07T01:05:02.616Z,1.67
2018-07-07T01:07:31.673Z,0.90
2018-07-07T01:10:00.696Z,0.70
2018-07-07T01:12:29.677Z,1.20
2018-07-07T01:14:58.657Z,1.20
2018-07-07T01:17:27.673Z,2.30
2018-07-07T01:19:56.697Z,1.30
2018-07-07T01:22:25.701Z,0.87
2018-07-07T01:24:54.685Z,0.80
2018-07-07T01:27:23.825Z,1.77
2018-07-07T01:29:52.804Z,1.43
2018-07-07T01:32:21.788Z,0.90
2018-07-07T01:34:50.840Z,1.53
2018-07-07T01:37:19.817Z,1.07
2018-07-07T01:39:48.825Z,1.10
2018-07-07T01:42:17.901Z,1.17
2018-07-07T01:44:46.908Z,1.30
2018-07-07T01:47:15.884Z,1.63
2018-07-07T01:49:44.972Z,1.10
2018-07-07T01:52:13.980Z,0.80
2018-07-07T01:54:42.997Z,0.90
2018-07-07T01:57:12.016Z,1.00
2018-07-07T01:59:41.003Z,1.70
2018-07-07T02:02:10.019Z,0.90
2018-07-07T02:04:38.996Z,1.07
2018-07-07T02:07:07.980Z,1.13
2018-07-07T02:09:36.996Z,2.87
2018-07-07T02:12:05.993Z,1.60
2018-07-07T02:14:35.013Z,1.30
2018-07-07T02:17:04.005Z,2.13
2018-07-07T02:19:33.025Z,1.43
2018-07-07T02:22:02.044Z,1.53
2018-07-07T02:24:31.129Z,2.10
2018-07-07T02:27:00.140Z,1.43
2018-07-07T02:29:29.176Z,1.63
2018-07-07T02:31:58.404Z,1.23
2018-07-07T02:34:28.041Z,1.60
2018-07-07T02:36:57.058Z,1.10
2018-07-07T02:39:26.085Z,2.27
2018-07-07T02:41:55.105Z,2.10
2018-07-07T02:44:24.101Z,2.30
2018-07-07T02:46:53.114Z,1.43
2018-07-07T02:49:22.084Z,1.50
2018-07-07T02:51:51.101Z,2.50
2018-07-07T02:54:20.073Z,2.13
2018-07-07T02:56:49.089Z,1.90
2018-07-07T02:59:18.436Z,1.90
2018-07-07T03:01:47.429Z,2.07
2018-07-07T03:04:16.415Z,1.53
2018-07-07T03:06:45.605Z,1.80
2018-07-07T03:09:14.780Z,1.60
2018-07-07T03:11:43.940Z,1.43
2018-07-07T03:14:12.961Z,1.73
2018-07-07T03:16:42.011Z,2.33
2018-07-07T03:19:11.025Z,1.87
2018-07-07T03:21:40.033Z,2.30
2018-07-07T03:24:09.161Z,2.67
2018-07-07T03:26:38.144Z,2.40
2018-07-07T03:29:07.345Z,1.97
2018-07-07T03:31:36.364Z,2.10
2018-07-07T03:34:06.297Z,1.50
2018-07-07T03:36:35.485Z,1.73
2018-07-07T03:39:05.444Z,2.20
2018-07-07T03:41:34.354Z,1.80
2018-07-07T03:44:03.367Z,1.57
2018-07-07T03:46:32.377Z,2.53
2018-07-07T03:49:01.402Z,1.40
2018-07-07T03:51:30.509Z,2.50
2018-07-07T03:53:59.532Z,1.93
2018-07-07T03:56:28.513Z,1.97
2018-07-07T03:58:57.721Z,1.43
2018-07-07T04:01:26.590Z,2.20
2018-07-07T04:03:55.619Z,2.00
2018-07-07T04:06:24.604Z,3.07
2018-07-07T04:08:53.625Z,1.83
2018-07-07T04:11:22.973Z,2.13
2018-07-07T04:13:51.970Z,2.17
2018-07-07T04:16:20.953Z,2.30
2018-07-07T04:18:49.965Z,1.83
2018-07-07T04:21:18.948Z,1.80
2018-07-07T04:23:47.992Z,1.40
2018-07-07T04:26:17.012Z,2.20
2018-07-07T04:28:46.032Z,1.43
2018-07-07T04:31:15.061Z,1.63
2018-07-07T04:33:44.064Z,1.63
2018-07-07T04:36:13.103Z,2.67
2018-07-07T04:38:42.116Z,2.37
2018-07-07T04:41:11.194Z,1.90
2018-07-07T04:43:40.188Z,2.37
2018-07-07T04:46:09.365Z,2.20
2018-07-07T04:48:38.341Z,2.53
2018-07-07T04:51:07.329Z,2.23
2018-07-07T04:53:36.350Z,2.13
2018-07-07T04:56:05.788Z,1.93
2018-07-07T04:58:34.771Z,3.07
2018-07-07T05:01:04.017Z,2.73
2018-07-07T05:03:32.996Z,2.37
2018-07-07T05:06:01.986Z,2.17
2018-07-07T05:08:31.068Z,2.00
2018-07-07T05:11:00.061Z,2.30
2018-07-07T05:13:29.076Z,2.70
2018-07-07T05:15:58.061Z,3.23
2018-07-07T05:18:27.101Z,2.60
2018-07-07T05:20:56.373Z,2.47
2018-07-07T05:23:27.264Z,1.67
2018-07-07T05:25:58.448Z,1.67
2018-07-07T05:28:27.449Z,2.10
2018-07-07T05:30:56.507Z,3.70
2018-07-07T05:33:25.488Z,1.87
2018-07-07T05:35:54.508Z,1.90
2018-07-07T05:38:23.528Z,1.80
2018-07-07T05:40:52.677Z,3.40
2018-07-07T05:43:21.929Z,4.03
2018-07-07T05:45:50.956Z,2.43
2018-07-07T05:48:19.941Z,2.00
2018-07-07T05:50:48.964Z,4.73
2018-07-07T05:53:17.957Z,2.57
2018-07-07T05:55:46.988Z,3.13
2018-07-07T05:58:15.985Z,2.17
2018-07-07T06:00:45.080Z,3.17
2018-07-07T06:03:13.933Z,1.67
2018-07-07T06:05:42.926Z,2.40
2018-07-07T06:08:11.939Z,1.67
2018-07-07T06:10:41.297Z,2.27
2018-07-07T06:13:10.324Z,2.80
2018-07-07T06:15:39.589Z,2.33
2018-07-07T06:18:08.793Z,2.67
2018-07-07T06:20:37.849Z,2.83
2018-07-07T06:23:06.865Z,3.30
2018-07-07T06:25:35.853Z,1.70
2018-07-07T06:28:04.880Z,2.57
2018-07-07T06:30:33.869Z,3.37
2018-07-07T06:33:02.889Z,1.73
2018-07-07T06:35:31.873Z,2.27
2018-07-07T06:38:00.861Z,2.30
2018-07-07T06:40:29.881Z,2.77
2018-07-07T06:42:58.856Z,1.73
2018-07-07T06:45:27.838Z,2.67
2018-07-07T06:47:56.853Z,2.57
2018-07-07T06:50:25.832Z,2.37
2018-07-07T06:52:54.865Z,2.77
2018-07-07T06:55:23.862Z,2.07
2018-07-07T06:57:52.921Z,1.30
2018-07-07T07:00:21.902Z,1.70
2018-07-07T07:02:50.929Z,1.83
2018-07-07T07:05:19.913Z,2.47
2018-07-07T07:07:48.930Z,3.13
2018-07-07T07:10:18.045Z,2.37
2018-07-07T07:12:47.273Z,1.93
2018-07-07T07:15:16.257Z,1.77
2018-07-07T07:17:45.245Z,2.97
2018-07-07T07:20:14.254Z,1.93
2018-07-07T07:22:43.337Z,2.90
2018-07-07T07:25:12.360Z,2.90
2018-07-07T07:27:41.412Z,2.37
2018-07-07T07:30:10.438Z,1.70
2018-07-07T07:32:39.417Z,1.60
2018-07-07T07:35:08.436Z,1.83
2018-07-07T07:37:37.413Z,2.10
2018-07-07T07:40:06.436Z,1.77
2018-07-07T07:42:35.484Z,2.23
2018-07-07T07:45:04.517Z,1.47
2018-07-07T07:47:33.596Z,2.43
2018-07-07T07:50:02.573Z,2.40
2018-07-07T07:52:31.597Z,1.93
2018-07-07T07:55:00.876Z,1.50
2018-07-07T07:57:29.857Z,1.77
2018-07-07T07:59:59.640Z,2.80
2018-07-07T08:02:28.785Z,2.03
2018-07-07T08:04:59.181Z,1.20
2018-07-07T08:07:28.933Z,1.77
2018-07-07T08:09:58.113Z,1.53
2018-07-07T08:12:27.185Z,1.80
2018-07-07T08:14:56.221Z,1.60
2018-07-07T08:17:25.213Z,1.30
2018-07-07T08:19:54.225Z,1.90
2018-07-07T08:22:23.232Z,1.50
2018-07-07T08:24:52.262Z,1.80
2018-07-07T08:29:56.509Z,1.27
2018-07-07T08:32:25.489Z,2.20
2018-07-07T08:34:54.669Z,1.73
2018-07-07T08:37:23.660Z,1.50
2018-07-07T08:39:52.672Z,1.70
2018-07-07T08:42:21.775Z,1.57
2018-07-07T08:44:50.784Z,2.13
2018-07-07T08:47:19.952Z,2.00
2018-07-07T08:49:48.946Z,0.97
2018-07-07T08:52:17.960Z,1.90
2018-07-07T08:54:46.941Z,2.10
2018-07-07T08:57:16.000Z,1.00
2018-07-07T08:59:45.133Z,1.33
2018-07-07T09:02:14.157Z,1.10
2018-07-07T09:04:43.192Z,1.33
2018-07-07T09:07:12.210Z,1.30
2018-07-07T09:09:41.230Z,1.80
2018-07-07T09:12:10.202Z,1.50
2018-07-07T09:14:39.251Z,1.90
2018-07-07T09:17:08.262Z,1.43
2018-07-07T09:19:37.288Z,1.40
2018-07-07T09:22:06.533Z,2.00
2018-07-07T09:24:35.635Z,1.63
2018-07-07T09:27:04.533Z,1.40
2018-07-07T09:29:33.553Z,1.70
2018-07-07T09:32:02.537Z,1.03
2018-07-07T09:34:31.528Z,1.30
2018-07-07T09:37:00.547Z,1.00
2018-07-07T09:39:29.585Z,1.27
2018-07-07T09:41:58.609Z,1.40
2018-07-07T09:44:27.593Z,1.40
2018-07-07T09:46:56.609Z,1.60
2018-07-07T09:49:25.601Z,1.60
2018-07-07T09:51:54.621Z,2.30
2018-07-07T09:54:23.640Z,1.27
2018-07-07T09:56:52.392Z,2.23
2018-07-07T09:59:21.243Z,1.40
2018-07-07T10:01:50.345Z,1.60
2018-07-07T10:04:19.341Z,1.10
2018-07-07T10:06:48.345Z,1.03
2018-07-07T10:09:17.358Z,1.47
2018-07-07T10:11:46.332Z,1.13
2018-07-07T10:14:15.341Z,1.10
2018-07-07T10:16:44.349Z,1.20
2018-07-07T10:19:13.369Z,1.00
2018-07-07T10:21:42.536Z,0.87
2018-07-07T10:24:11.512Z,0.83
2018-07-07T10:26:40.541Z,0.80
2018-07-07T10:29:09.561Z,0.90
2018-07-07T10:31:38.799Z,1.47
2018-07-07T10:34:07.769Z,1.33
2018-07-07T10:36:36.785Z,0.90
2018-07-07T10:39:06.585Z,1.10
2018-07-07T10:41:36.388Z,2.30
2018-07-07T10:44:05.754Z,1.10
2018-07-07T10:46:34.713Z,1.77
2018-07-07T10:49:03.738Z,1.00
2018-07-07T10:51:32.717Z,1.07
2018-07-07T10:54:01.557Z,1.17
2018-07-07T10:56:30.405Z,1.03
2018-07-07T10:58:59.421Z,1.47
2018-07-07T11:01:28.713Z,1.37
2018-07-07T11:03:57.692Z,0.90
2018-07-07T11:06:26.684Z,0.80
2018-07-07T11:08:55.721Z,1.10
2018-07-07T11:11:24.690Z,1.17
2018-07-07T11:13:53.721Z,1.07
2018-07-07T11:16:22.693Z,1.30
2018-07-07T11:18:51.772Z,0.97
2018-07-07T11:21:20.794Z,1.13
2018-07-07T11:23:49.812Z,1.00
2018-07-07T11:26:18.825Z,0.90
2018-07-07T11:28:47.811Z,1.47
2018-07-07T11:31:16.828Z,1.10
2018-07-07T11:33:45.909Z,0.80
2018-07-07T11:36:14.907Z,1.00
2018-07-07T11:38:44.096Z,1.17
2018-07-07T11:41:16.101Z,1.13
2018-07-07T11:43:45.080Z,1.40
2018-07-07T11:46:14.413Z,1.40
2018-07-07T11:48:43.568Z,0.90
2018-07-07T11:51:12.606Z,1.40
2018-07-07T11:53:41.680Z,1.00
2018-07-07T11:56:10.661Z,3.03
2018-07-07T11:58:39.768Z,1.10
2018-07-07T12:01:08.871Z,1.33
2018-07-07T12:03:37.752Z,0.73
2018-07-07T12:06:06.746Z,1.13
2018-07-07T12:08:35.756Z,0.80
2018-07-07T12:11:05.105Z,0.80
2018-07-07T12:13:34.128Z,1.13
2018-07-07T12:16:03.165Z,0.90
2018-07-07T12:18:32.149Z,0.60
2018-07-07T12:21:01.173Z,1.10
2018-07-07T12:23:30.297Z,0.80
2018-07-07T12:25:59.280Z,1.90
2018-07-07T12:28:28.336Z,0.80
2018-07-07T12:30:57.349Z,0.60
2018-07-07T12:33:26.330Z,1.63
2018-07-07T12:35:55.357Z,0.80
2018-07-07T12:38:24.352Z,0.70
2018-07-07T12:40:53.736Z,0.60
2018-07-07T12:43:22.661Z,0.50
2018-07-07T12:45:51.678Z,0.70
2018-07-07T12:48:20.681Z,0.60
2018-07-07T12:50:49.697Z,0.60
2018-07-07T12:53:18.737Z,0.70
2018-07-07T12:55:47.727Z,0.70
2018-07-07T12:58:16.748Z,0.80
2018-07-07T13:00:45.610Z,0.90
2018-07-07T13:03:14.629Z,0.70
2018-07-07T13:05:43.654Z,0.97
2018-07-07T13:08:12.811Z,0.60
2018-07-07T13:10:41.999Z,1.13
2018-07-07T13:13:11.017Z,0.70
2018-07-07T13:15:40.089Z,0.97
2018-07-07T13:18:09.072Z,0.80
2018-07-07T13:20:38.112Z,0.60
2018-07-07T13:23:07.181Z,0.57
2018-07-07T13:25:36.240Z,0.70
2018-07-07T13:28:05.457Z,0.90
2018-07-07T13:30:34.497Z,0.60
2018-07-07T13:33:03.507Z,0.87
2018-07-07T13:35:32.493Z,0.90
2018-07-07T13:38:01.654Z,0.80
2018-07-07T13:40:30.454Z,1.13
2018-07-07T13:42:59.352Z,0.80
2018-07-07T13:45:28.462Z,0.70
2018-07-07T13:47:57.484Z,0.50
2018-07-07T13:50:26.840Z,0.60
2018-07-07T13:52:55.845Z,0.60
2018-07-07T13:55:24.825Z,1.20
2018-07-07T13:57:53.849Z,1.93
2018-07-07T14:00:22.873Z,0.60
2018-07-07T14:02:51.876Z,0.50
2018-07-07T14:05:20.857Z,1.30
2018-07-07T14:07:50.080Z,1.03
2018-07-07T14:10:19.060Z,0.80
2018-07-07T14:12:48.073Z,0.80
2018-07-07T14:15:17.058Z,0.60
2018-07-07T14:17:46.086Z,0.93
2018-07-07T14:20:15.076Z,0.90
2018-07-07T14:22:44.124Z,1.00
2018-07-07T14:25:13.150Z,0.77
2018-07-07T14:27:42.152Z,0.60
2018-07-07T14:30:11.133Z,0.70
2018-07-07T14:32:40.161Z,0.60
2018-07-07T14:35:09.172Z,0.77
2018-07-07T14:37:38.169Z,0.60
2018-07-07T14:40:07.477Z,0.70
2018-07-07T14:42:46.412Z,0.80
2018-07-07T14:45:32.466Z,0.90
2018-07-07T14:48:02.894Z,0.80
2018-07-07T14:50:31.898Z,0.70
2018-07-07T14:53:00.957Z,0.60
2018-07-07T14:55:30.129Z,0.60
2018-07-07T14:57:59.200Z,0.60
2018-07-07T15:00:28.941Z,0.60
2018-07-07T15:02:58.496Z,0.80
2018-07-07T15:05:27.553Z,0.53
2018-07-07T15:07:56.535Z,0.80
2018-07-07T15:10:25.749Z,0.60
2018-07-07T15:12:54.761Z,0.60
2018-07-07T15:15:23.981Z,0.60
2018-07-07T15:17:52.992Z,0.60
2018-07-07T15:20:21.980Z,0.97
2018-07-07T15:22:51.035Z,0.60
2018-07-07T15:25:19.987Z,0.60
2018-07-07T15:27:49.200Z,0.60
2018-07-07T15:30:18.181Z,0.73
2018-07-07T15:32:47.164Z,0.50
2018-07-07T15:35:16.241Z,0.70
2018-07-07T15:37:45.216Z,1.63
2018-07-07T15:40:14.317Z,0.63
2018-07-07T15:42:43.277Z,0.67
2018-07-07T15:45:12.420Z,1.00
2018-07-07T15:47:41.497Z,0.60
2018-07-07T15:50:10.622Z,0.60
2018-07-07T15:52:39.649Z,0.70
2018-07-07T15:55:08.673Z,0.63
2018-07-07T15:57:37.684Z,0.60
2018-07-07T16:00:08.909Z,0.67
2018-07-07T16:02:37.961Z,0.70
2018-07-07T16:05:07.140Z,0.70
2018-07-07T16:07:36.160Z,0.50
2018-07-07T16:10:05.508Z,1.30
2018-07-07T16:12:34.532Z,0.70
2018-07-07T16:15:03.552Z,0.70
2018-07-07T16:17:32.565Z,0.87
2018-07-07T16:20:02.315Z,1.10
2018-07-07T16:22:31.669Z,0.70
2018-07-07T16:25:00.952Z,0.60
2018-07-07T16:27:30.089Z,0.70
2018-07-07T16:29:59.084Z,0.70
2018-07-07T16:32:28.096Z,0.60
2018-07-07T16:34:56.910Z,0.60
2018-07-07T16:37:25.773Z,0.60
2018-07-07T16:39:54.829Z,0.70
2018-07-07T16:42:23.984Z,0.70
2018-07-07T16:44:52.997Z,0.60
2018-07-07T16:47:22.101Z,1.00
2018-07-07T16:49:51.094Z,0.50
2018-07-07T16:52:20.296Z,0.70
2018-07-07T16:54:49.587Z,0.60
2018-07-07T16:57:18.621Z,0.90
2018-07-07T16:59:47.701Z,0.80
2018-07-07T17:02:17.853Z,1.00
2018-07-07T17:04:46.892Z,0.80
2018-07-07T17:07:15.868Z,0.73
2018-07-07T17:09:44.868Z,0.80
2018-07-07T17:12:13.891Z,0.80
2018-07-07T17:14:42.908Z,0.80
2018-07-07T17:17:11.885Z,0.70
2018-07-07T17:19:40.917Z,0.87
2018-07-07T17:22:09.956Z,0.83
2018-07-07T17:24:38.989Z,0.60
2018-07-07T17:27:08.006Z,0.70
2018-07-07T17:29:37.562Z,1.20
2018-07-07T17:32:06.902Z,0.80
2018-07-07T17:34:35.898Z,0.73
2018-07-07T17:37:05.250Z,1.27
2018-07-07T17:39:34.316Z,0.60
2018-07-07T17:42:03.509Z,1.00
2018-07-07T17:44:32.815Z,0.80
2018-07-07T17:47:01.805Z,0.63
2018-07-07T17:49:30.844Z,1.10
2018-07-07T17:51:59.845Z,0.87
2018-07-07T17:54:28.981Z,1.03
2018-07-07T17:56:57.764Z,0.90
2018-07-07T17:59:26.626Z,0.67
2018-07-07T18:01:55.653Z,0.80
2018-07-07T18:04:24.641Z,0.70
2018-07-07T18:06:54.271Z,1.13
2018-07-07T18:09:23.249Z,0.90
2018-07-07T18:11:52.442Z,1.20
2018-07-07T18:14:21.450Z,0.80
2018-07-07T18:16:52.894Z,0.70
2018-07-07T18:19:22.022Z,1.10
2018-07-07T18:21:51.354Z,0.80
2018-07-07T18:24:20.353Z,0.70
2018-07-07T18:26:49.332Z,0.80
2018-07-07T18:29:18.354Z,0.70
2018-07-07T18:31:47.370Z,0.80
2018-07-07T18:34:16.737Z,0.80
2018-07-07T18:36:45.737Z,1.20
2018-07-07T18:39:14.720Z,0.70
2018-07-07T18:41:43.745Z,0.90
2018-07-07T18:44:12.769Z,0.70
2018-07-07T18:46:42.037Z,1.97
2018-07-07T18:49:11.113Z,1.10
2018-07-07T18:51:40.105Z,0.90
2018-07-07T18:54:09.297Z,1.00
2018-07-07T18:56:38.351Z,0.87
2018-07-07T18:59:07.333Z,1.10
2018-07-07T19:01:36.166Z,0.57
2018-07-07T19:04:05.213Z,0.80
2018-07-07T19:06:34.198Z,1.97
2018-07-07T19:09:03.842Z,1.33
2018-07-07T19:11:32.834Z,1.20
2018-07-07T19:14:01.977Z,0.80
2018-07-07T19:16:30.957Z,0.63
2018-07-07T19:18:59.941Z,1.47
2018-07-07T19:21:34.620Z,0.77
2018-07-07T19:24:08.977Z,0.80
2018-07-07T19:26:50.259Z,0.80
2018-07-07T19:29:20.089Z,0.97
2018-07-07T19:31:54.688Z,1.07
2018-07-07T19:34:29.233Z,1.20
2018-07-07T19:37:03.706Z,1.37
2018-07-07T19:39:32.524Z,1.00
2018-07-07T19:42:01.387Z,0.77
2018-07-07T19:44:30.402Z,0.90
2018-07-07T19:46:59.212Z,0.90
2018-07-07T19:49:28.105Z,1.67
2018-07-07T19:51:57.089Z,0.80
2018-07-07T19:54:26.102Z,1.00
2018-07-07T19:56:55.085Z,0.93
2018-07-07T19:59:24.141Z,1.07
2018-07-07T20:01:53.188Z,0.60
2018-07-07T20:04:22.389Z,1.10
2018-07-07T20:06:51.461Z,1.33
2018-07-07T20:09:20.502Z,1.43
2018-07-07T20:11:49.522Z,0.80
2018-07-07T20:14:20.109Z,2.03
2018-07-07T20:17:15.713Z,1.07
2018-07-07T20:21:04.641Z,1.57
2018-07-07T20:23:33.761Z,1.10
2018-07-07T20:26:03.984Z,1.00
2018-07-07T20:28:38.469Z,1.07
2018-07-07T20:31:07.596Z,1.03
2018-07-07T20:33:36.584Z,0.90
2018-07-07T20:36:05.661Z,1.50
2018-07-07T20:38:34.762Z,1.27
2018-07-07T20:41:03.775Z,0.80
2018-07-07T20:43:32.797Z,1.00
2018-07-07T20:46:02.144Z,0.90
2018-07-07T20:48:31.148Z,0.70
2018-07-07T20:51:00.169Z,1.20
2018-07-07T20:53:29.209Z,0.90
2018-07-07T20:55:58.263Z,4.33
2018-07-07T20:58:27.249Z,3.67
2018-07-07T21:00:56.282Z,1.83
2018-07-07T21:03:25.264Z,1.30
2018-07-07T21:05:54.288Z,1.00
2018-07-07T21:08:23.313Z,0.90
2018-07-07T21:10:52.308Z,1.17
2018-07-07T21:13:21.340Z,1.00
2018-07-07T21:15:50.385Z,0.87
2018-07-07T21:18:19.660Z,1.17
2018-07-07T21:20:48.648Z,1.60
2018-07-07T21:23:17.628Z,1.00
2018-07-07T21:25:46.712Z,1.40
2018-07-07T21:28:15.777Z,1.17
2018-07-07T21:30:44.800Z,0.80
2018-07-07T21:33:14.108Z,0.80
2018-07-07T21:35:43.218Z,1.10
2018-07-07T21:38:12.317Z,1.33
2018-07-07T21:40:41.501Z,1.30
2018-07-07T21:43:10.496Z,1.30
2018-07-07T21:45:39.480Z,1.10
2018-07-07T21:48:08.493Z,1.00
2018-07-07T21:50:37.477Z,1.03
2018-07-07T21:53:06.497Z,1.20
2018-07-07T21:55:35.482Z,1.67
2018-07-07T21:58:09.945Z,3.50
2018-07-07T22:00:55.776Z,9.43
2018-07-07T22:03:30.182Z,21.07
2018-07-07T22:06:04.700Z,53.37
2018-07-07T22:08:33.885Z,74.67
2018-07-07T22:11:02.905Z,63.43
2018-07-07T22:13:32.129Z,19.10
2018-07-07T22:16:01.117Z,6.33
2018-07-07T22:18:30.121Z,5.37
2018-07-07T22:21:45.545Z,14.47
2018-07-07T22:24:14.593Z,6.77
2018-07-07T22:26:43.574Z,4.57
2018-07-07T22:29:12.610Z,1.67
2018-07-07T22:31:41.593Z,1.03
2018-07-07T22:34:10.569Z,1.00
2018-07-07T22:36:39.681Z,1.37
2018-07-07T22:39:08.681Z,1.23
2018-07-07T22:41:51.717Z,1.40
2018-07-07T22:44:20.993Z,1.50
2018-07-07T22:46:51.165Z,1.80
2018-07-07T22:49:20.181Z,1.60
2018-07-07T22:51:49.373Z,1.50
2018-07-07T22:54:18.361Z,1.20
2018-07-07T22:56:47.346Z,1.17
2018-07-07T22:59:16.358Z,2.43
2018-07-07T23:01:45.342Z,26.63
2018-07-07T23:04:14.330Z,14.70
2018-07-07T23:06:44.441Z,4.87
2018-07-07T23:09:14.633Z,4.50
2018-07-07T23:11:43.645Z,6.10
2018-07-07T23:14:12.392Z,3.73
2018-07-07T23:16:41.286Z,3.00
2018-07-07T23:19:10.389Z,3.70
2018-07-07T23:21:39.373Z,7.23
2018-07-07T23:24:08.365Z,9.10
2018-07-07T23:26:37.389Z,8.30
2018-07-07T23:29:06.410Z,9.33
2018-07-07T23:31:35.390Z,7.07
2018-07-07T23:34:04.395Z,10.60
2018-07-07T23:36:33.453Z,9.10
2018-07-07T23:39:02.476Z,7.67
2018-07-07T23:41:31.457Z,5.67
2018-07-07T23:44:00.476Z,6.60
2018-07-07T23:46:29.489Z,5.10
2018-07-07T23:48:58.525Z,3.80
2018-07-07T23:51:27.541Z,3.57
2018-07-07T23:53:56.516Z,3.83
2018-07-07T23:56:25.501Z,1.97
2018-07-07T23:58:54.527Z,1.73
